Terminal Aerodrome Forecast
Issued by NWS Atlanta, GA

Home | Current Version | Previous Version | Text Only | Print | Product List | Glossary On
Versions: 1 2 3 4 5 6 7 8 9 10 11 12 13 14
000
FTUS42 KFFC 290542
TAFMCN
TAF
KMCN 290542Z 2906/3006 00000KT P6SM FEW080 SCT250
     FM291400 36005KT P6SM FEW040 SCT120
     FM291800 36087KT P6SM SCT060 BKN120
     FM292300 02005KT P6SM FEW080
     FM300300 00000KT P6SM SKC=

USA.gov is the U.S. government's official web portal to all federal, state and local government web resources and services.